KTNU

Newton Municipal-Earl Johnson Field Airport

Newton, Iowa, USA
METAR KTNU 170015Z AUTO 31009KT 10SM CLR 03/M00 A3023 RMK AO2
Observed Flight Rules
Dec-17 @ 00:15 UTC (8 minutes ago) Visual Flight Rules
Wind Visibility Clouds
310° at 9 knots 10 miles
  • Clear skies
Temperatures Readings
Current 3°C / 37°F
Dewpoint 0°C / 32°F
Humidity 81%
Altimeter 30.23" Hg
Pressure 1024 hPa
Elevation 290
METAR KTNU 170015Z AUTO 31009KT 10SM CLR 03/M00 A3023 RMK AO2
Observed Flight Rules
Dec-17 @ 00:15 UTC
(8 minutes ago)
VFR
Wind Visibility
310° at 9 knots 10 miles
Clouds
  • Clear skies
Temperature Dewpoint
3°C / 37°F 0°C / 32°F
Humidity Altimeter Pressure
81% 30.23" Hg 1024 hPa